Ormond Beach, Florida
Current Conditions -  °F | °C
As of 3:53 AM on Saturday 25 Oct 2014 (Local Time) from KDAB Reporting Station
Few Clouds Few Clouds  
Wind Chill: 62°   Ceiling: Unl
Heat Index: 62°   Visibility: 10mi
Dew Point: 54°   Wind: 8mph
Humidity: 75%   Direction: 320°NW
Pressure: 29.95"   Gusts: NA
Location:  29.29°N, 81.05°W
Report Text: KDAB 250753Z 32007KT 10SM FEW045 FEW100 17/12 A2995 RMK AO2 SLP141 T01670122
Loading
Personal Weather Stations






























Interactive Weather Map
Tropical Storm Tracking
New forecast layout! Learn more

10-Day Weather Forecast

Advertisements
Track Severe Weather on mobile